createdAt,value
2022-08-08T00:00:53.209Z,8.90
2022-08-08T00:04:32.841Z,7.40
2022-08-08T00:08:41.090Z,10.02
2022-08-08T00:12:57.566Z,7.13
2022-08-08T00:17:22.810Z,13.13
2022-08-08T00:21:29.635Z,13.65
2022-08-08T00:25:46.199Z,8.95
2022-08-08T00:29:56.123Z,8.15
2022-08-08T00:34:20.053Z,7.30
2022-08-08T00:38:52.043Z,7.35
2022-08-08T00:43:22.823Z,6.65
2022-08-08T00:48:01.979Z,7.50
2022-08-08T00:52:24.423Z,10.07
2022-08-08T00:57:02.542Z,10.05
2022-08-08T01:01:29.290Z,8.40
2022-08-08T01:06:35.191Z,20.45
2022-08-08T01:11:25.192Z,13.30
2022-08-08T01:16:01.628Z,11.00
2022-08-08T01:20:35.799Z,12.48
2022-08-08T01:24:54.743Z,9.27
2022-08-08T01:29:24.339Z,10.80
2022-08-08T01:34:01.394Z,15.40
2022-08-08T01:39:00.605Z,9.02
2022-08-08T01:43:11.869Z,10.07
2022-08-08T01:48:14.178Z,9.20
2022-08-08T01:52:43.943Z,10.07
2022-08-08T01:56:38.196Z,6.95
2022-08-08T02:00:57.363Z,7.95
2022-08-08T02:05:15.016Z,15.23
2022-08-08T02:10:02.332Z,8.25
2022-08-08T02:13:55.503Z,9.77
2022-08-08T02:18:02.181Z,10.75
2022-08-08T02:22:28.115Z,9.20
2022-08-08T02:26:40.355Z,7.38
2022-08-08T02:31:02.020Z,6.80
2022-08-08T02:36:02.476Z,10.77
2022-08-08T02:40:05.343Z,8.00
2022-08-08T02:44:57.475Z,8.68
2022-08-08T02:49:47.879Z,8.25
2022-08-08T02:54:09.141Z,13.50
2022-08-08T02:58:47.720Z,11.40
2022-08-08T03:03:12.553Z,8.50
2022-08-08T03:08:06.818Z,13.23
2022-08-08T03:13:02.081Z,11.45
2022-08-08T03:17:01.435Z,8.30
2022-08-08T03:21:01.611Z,10.75
2022-08-08T03:25:18.212Z,7.78
2022-08-08T03:29:38.121Z,10.77
2022-08-08T03:33:55.385Z,12.50
2022-08-08T03:38:54.462Z,8.30
2022-08-08T03:42:30.319Z,13.07
2022-08-08T03:46:32.568Z,14.40
2022-08-08T03:50:34.518Z,11.02
2022-08-08T03:54:51.670Z,12.43
2022-08-08T04:03:04.355Z,12.30
2022-08-08T04:07:24.142Z,13.18
2022-08-08T04:11:25.467Z,10.02
2022-08-08T04:15:38.406Z,12.60
2022-08-08T04:19:42.519Z,11.98
2022-08-08T04:24:05.453Z,9.35
2022-08-08T04:28:39.939Z,15.43
2022-08-08T04:32:30.221Z,20.48
2022-08-08T04:36:31.087Z,16.52
2022-08-08T04:40:34.658Z,21.98
2022-08-08T04:44:39.881Z,20.88
2022-08-08T04:48:43.407Z,17.30
2022-08-08T04:52:42.551Z,18.60
2022-08-08T04:56:49.404Z,10.35
2022-08-08T05:00:49.979Z,9.15
2022-08-08T05:04:53.792Z,13.48
2022-08-08T05:09:02.130Z,11.25
2022-08-08T05:13:03.468Z,11.18
2022-08-08T05:17:10.965Z,25.40
2022-08-08T05:21:14.497Z,14.25
2022-08-08T05:25:15.626Z,17.23
2022-08-08T05:29:15.509Z,20.27
2022-08-08T05:34:05.671Z,16.02
2022-08-08T05:38:29.354Z,10.45
2022-08-08T05:42:38.000Z,9.75
2022-08-08T05:46:39.297Z,8.75
2022-08-08T05:50:39.670Z,6.18
2022-08-08T05:54:51.006Z,7.07
2022-08-08T05:59:04.167Z,10.02
2022-08-08T06:03:24.888Z,7.97
2022-08-08T06:07:25.934Z,9.32
2022-08-08T06:11:37.164Z,9.05
2022-08-08T06:15:53.917Z,15.32
2022-08-08T06:19:59.593Z,9.35
2022-08-08T06:24:03.420Z,11.65
2022-08-08T06:28:16.027Z,10.52
2022-08-08T06:32:21.616Z,7.47
2022-08-08T06:36:53.629Z,10.70
2022-08-08T06:40:59.288Z,11.05
2022-08-08T06:45:05.498Z,10.38
2022-08-08T06:49:06.349Z,9.90
2022-08-08T06:53:17.602Z,11.00
2022-08-08T06:57:20.347Z,10.27
2022-08-08T07:02:18.199Z,9.35
2022-08-08T07:05:43.831Z,8.77
2022-08-08T07:10:37.872Z,9.88
2022-08-08T07:14:55.112Z,7.88
2022-08-08T07:19:08.201Z,7.43
2022-08-08T07:23:16.322Z,11.90
2022-08-08T07:27:29.575Z,6.50
2022-08-08T07:31:48.333Z,5.47
2022-08-08T07:35:54.577Z,6.53
2022-08-08T07:40:00.017Z,11.55
2022-08-08T07:44:40.723Z,5.70
2022-08-08T07:48:37.142Z,5.15
2022-08-08T07:57:17.192Z,8.45
2022-08-08T08:01:27.074Z,6.32
2022-08-08T08:05:53.288Z,11.65
2022-08-08T08:09:58.683Z,7.70
2022-08-08T08:14:10.690Z,6.68
2022-08-08T08:23:42.087Z,5.05
2022-08-08T08:28:52.240Z,4.45
2022-08-08T08:33:20.039Z,4.72
2022-08-08T08:37:22.744Z,5.35
2022-08-08T08:41:48.669Z,12.63
2022-08-08T08:51:25.345Z,5.23
2022-08-08T08:55:31.051Z,10.68
2022-08-08T08:59:59.433Z,7.68
2022-08-08T09:04:32.120Z,6.20
2022-08-08T09:08:54.743Z,9.57
2022-08-08T09:13:02.367Z,7.65
2022-08-08T09:17:11.743Z,5.97
2022-08-08T09:22:01.481Z,5.10
2022-08-08T09:25:54.935Z,5.60
2022-08-08T09:30:04.787Z,15.02
2022-08-08T09:34:31.095Z,10.98
2022-08-08T09:38:52.850Z,7.93
2022-08-08T09:43:16.408Z,10.75
2022-08-08T09:52:07.399Z,11.23
2022-08-08T09:56:21.801Z,28.35
2022-08-08T10:00:53.675Z,8.73
2022-08-08T10:04:55.275Z,11.88
2022-08-08T10:08:57.302Z,5.15
2022-08-08T10:13:06.188Z,6.35
2022-08-08T10:18:05.335Z,3.67
2022-08-08T10:21:42.366Z,5.80
2022-08-08T10:25:57.227Z,7.70
2022-08-08T10:31:00.623Z,4.68
2022-08-08T10:35:01.731Z,6.40
2022-08-08T10:39:07.294Z,8.18
2022-08-08T10:43:09.806Z,8.00
2022-08-08T10:47:21.544Z,12.77
2022-08-08T11:04:02.444Z,5.82
2022-08-08T11:08:30.624Z,7.18
2022-08-08T11:12:38.335Z,5.05
2022-08-08T11:16:57.888Z,20.55
2022-08-08T11:36:59.537Z,5.18
2022-08-08T11:40:59.388Z,7.90
2022-08-08T11:45:02.705Z,6.63
2022-08-08T11:49:05.793Z,14.38
2022-08-08T11:53:11.559Z,4.93
2022-08-08T11:57:17.204Z,7.93
2022-08-08T12:01:17.003Z,11.30
2022-08-08T12:05:17.925Z,4.43
2022-08-08T12:09:59.573Z,5.38
2022-08-08T12:14:04.832Z,7.65
2022-08-08T12:18:16.078Z,9.98
2022-08-08T12:22:21.269Z,10.68
2022-08-08T12:26:28.425Z,10.63
2022-08-08T12:30:35.637Z,7.50
2022-08-08T12:34:41.355Z,9.05
2022-08-08T12:38:48.415Z,14.25
2022-08-08T12:42:50.957Z,8.90
2022-08-08T12:47:00.054Z,7.63
2022-08-08T12:51:00.093Z,5.05
2022-08-08T12:55:13.235Z,6.03
2022-08-08T12:59:20.486Z,4.25
2022-08-08T13:03:33.585Z,3.90
2022-08-08T13:08:04.493Z,9.05
2022-08-08T13:12:19.558Z,7.90
2022-08-08T13:16:25.505Z,9.75
2022-08-08T13:20:34.745Z,12.65
2022-08-08T13:24:46.403Z,9.10
2022-08-08T13:28:48.929Z,26.52
2022-08-08T13:32:57.187Z,12.68
2022-08-08T13:36:59.324Z,6.85
2022-08-08T13:41:00.313Z,9.30
2022-08-08T13:45:04.390Z,5.10
2022-08-08T13:49:12.139Z,8.40
2022-08-08T13:53:36.244Z,5.60
2022-08-08T13:58:06.492Z,13.18
2022-08-08T14:02:07.328Z,5.05
2022-08-08T14:06:33.454Z,57.50
2022-08-08T14:10:39.487Z,4.68
2022-08-08T14:14:42.504Z,6.53
2022-08-08T14:18:57.652Z,9.90
2022-08-08T14:23:10.355Z,9.68
2022-08-08T14:27:26.970Z,10.13
2022-08-08T14:32:05.936Z,5.25
2022-08-08T14:35:49.632Z,5.30
2022-08-08T14:40:05.720Z,7.78
2022-08-08T14:44:11.132Z,8.27
2022-08-08T14:48:12.450Z,7.90
2022-08-08T14:52:16.295Z,5.55
2022-08-08T14:56:25.152Z,5.30
2022-08-08T15:00:26.302Z,5.65
2022-08-08T15:04:27.847Z,4.68
2022-08-08T15:08:35.033Z,3.25
2022-08-08T15:12:40.879Z,8.23
2022-08-08T15:16:40.928Z,6.10
2022-08-08T15:20:42.491Z,7.95
2022-08-08T15:24:44.184Z,8.48
2022-08-08T15:28:54.122Z,6.60
2022-08-08T15:32:54.218Z,9.90
2022-08-08T15:36:54.169Z,4.35
2022-08-08T15:40:54.240Z,8.52
2022-08-08T15:44:56.145Z,16.25
2022-08-08T15:48:55.913Z,6.13
2022-08-08T15:52:58.285Z,12.25
2022-08-08T15:56:57.993Z,9.27
2022-08-08T16:00:59.777Z,7.68
2022-08-08T16:05:01.572Z,3.53
2022-08-08T16:13:00.238Z,7.40
2022-08-08T16:13:31.990Z,11.82
2022-08-08T16:18:06.240Z,17.33
2022-08-08T16:22:02.565Z,9.10
2022-08-08T16:26:05.006Z,4.95
2022-08-08T16:30:16.319Z,9.77
2022-08-08T16:34:26.936Z,12.65
2022-08-08T16:38:31.771Z,10.27
2022-08-08T16:42:31.799Z,7.13
2022-08-08T16:46:43.736Z,3.33
2022-08-08T16:50:49.430Z,5.72
2022-08-08T16:55:03.014Z,4.13
2022-08-08T16:59:10.919Z,7.88
2022-08-08T17:03:11.823Z,7.53
2022-08-08T17:07:16.667Z,5.80
2022-08-08T17:11:16.593Z,7.32
2022-08-08T17:15:20.877Z,7.15
2022-08-08T17:19:20.919Z,7.95
2022-08-08T17:23:59.001Z,7.68
2022-08-08T17:27:47.351Z,4.32
2022-08-08T17:31:49.420Z,4.97
2022-08-08T17:35:55.968Z,5.82
2022-08-08T17:40:15.130Z,3.35
2022-08-08T17:44:15.134Z,6.07
2022-08-08T17:48:30.839Z,3.72
2022-08-08T17:52:30.903Z,7.20
2022-08-08T17:56:34.975Z,5.82
2022-08-08T18:00:39.202Z,3.63
2022-08-08T18:04:49.355Z,3.28
2022-08-08T18:08:51.281Z,5.00
2022-08-08T18:13:01.440Z,7.15
2022-08-08T18:17:02.777Z,7.93
2022-08-08T18:21:10.578Z,12.10
2022-08-08T18:25:25.241Z,6.28
2022-08-08T18:29:34.383Z,5.00
2022-08-08T18:34:10.342Z,4.45
2022-08-08T18:37:57.028Z,7.68
2022-08-08T18:42:04.250Z,3.92
2022-08-08T18:46:54.945Z,6.53
2022-08-08T18:50:26.386Z,10.20
2022-08-08T18:54:29.971Z,10.77
2022-08-08T18:58:30.588Z,7.55
2022-08-08T19:02:34.984Z,6.13
2022-08-08T19:06:35.894Z,10.98
2022-08-08T19:10:35.556Z,6.47
2022-08-08T19:14:34.800Z,5.35
2022-08-08T19:18:51.812Z,6.30
2022-08-08T19:22:57.485Z,14.32
2022-08-08T19:26:56.904Z,8.32
2022-08-08T19:31:03.362Z,9.32
2022-08-08T19:35:05.848Z,8.63
2022-08-08T19:39:11.223Z,7.22
2022-08-08T19:43:11.888Z,13.30
2022-08-08T19:47:12.476Z,8.55
2022-08-08T19:51:15.146Z,9.50
2022-08-08T19:55:24.746Z,4.95
2022-08-08T19:59:27.594Z,9.15
2022-08-08T20:04:00.504Z,8.80
2022-08-08T20:08:31.281Z,8.27
2022-08-08T20:12:11.134Z,5.15
2022-08-08T20:16:13.859Z,7.88
2022-08-08T20:20:19.133Z,5.60
2022-08-08T20:24:21.682Z,5.30
2022-08-08T20:28:32.713Z,5.22
2022-08-08T20:32:32.185Z,10.80
2022-08-08T20:36:32.055Z,4.82
2022-08-08T20:40:38.602Z,9.20
2022-08-08T20:44:38.926Z,14.60
2022-08-08T20:48:38.190Z,10.90
2022-08-08T20:52:44.831Z,6.07
2022-08-08T20:57:05.891Z,6.75
2022-08-08T21:01:19.459Z,7.00
2022-08-08T21:05:19.979Z,5.32
2022-08-08T21:09:21.826Z,6.00
2022-08-08T21:13:40.100Z,6.07
2022-08-08T21:21:44.171Z,8.50
2022-08-08T21:25:43.901Z,6.78
2022-08-08T21:30:03.854Z,6.45
2022-08-08T21:34:05.510Z,9.05
2022-08-08T21:38:08.499Z,6.00
2022-08-08T21:42:16.234Z,13.38
2022-08-08T21:48:03.731Z,14.63
2022-08-08T21:50:37.413Z,7.82
2022-08-08T21:55:02.005Z,7.03
2022-08-08T21:58:58.206Z,6.35
2022-08-08T22:02:59.595Z,11.88
2022-08-08T22:07:01.575Z,5.95
2022-08-08T22:11:01.227Z,8.32
2022-08-08T22:15:02.110Z,9.50
2022-08-08T22:19:09.082Z,13.27
2022-08-08T22:23:16.015Z,26.65
2022-08-08T22:27:15.162Z,36.42
2022-08-08T22:31:15.329Z,39.28
2022-08-08T22:35:16.811Z,23.33
2022-08-08T22:39:23.683Z,25.98
2022-08-08T22:44:01.575Z,35.95
2022-08-08T22:47:59.932Z,34.13
2022-08-08T22:52:01.712Z,45.17
2022-08-08T22:56:01.836Z,49.72
2022-08-08T23:00:03.263Z,36.97
2022-08-08T23:04:04.334Z,53.25
2022-08-08T23:08:07.226Z,33.53
2022-08-08T23:12:39.744Z,41.78
2022-08-08T23:16:43.330Z,41.85
2022-08-08T23:20:45.248Z,41.70
2022-08-08T23:24:56.433Z,31.27
2022-08-08T23:28:57.894Z,31.15
2022-08-08T23:32:57.512Z,24.90
2022-08-08T23:36:59.648Z,10.25
2022-08-08T23:41:05.142Z,9.10
2022-08-08T23:45:12.639Z,6.82
2022-08-08T23:49:18.041Z,5.88
2022-08-08T23:53:30.810Z,7.43
2022-08-08T23:57:53.011Z,5.32
